sensor_id;sensor_type;location;lat;lon;timestamp;P1;durP1;ratioP1;P2;durP2;ratioP2
20468;SDS011;10393;52.460;13.322;2023-06-10T00:00:33;5.68;;;2.35;;
20468;SDS011;10393;52.460;13.322;2023-06-10T00:02:15;7.13;;;2.10;;
20468;SDS011;10393;52.460;13.322;2023-06-10T00:03:57;5.75;;;1.30;;
20468;SDS011;10393;52.460;13.322;2023-06-10T00:05:38;3.20;;;1.80;;
20468;SDS011;10393;52.460;13.322;2023-06-10T00:07:19;6.00;;;1.73;;
20468;SDS011;10393;52.460;13.322;2023-06-10T00:09:01;3.97;;;0.82;;
20468;SDS011;10393;52.460;13.322;2023-06-10T00:10:43;8.23;;;2.20;;
20468;SDS011;10393;52.460;13.322;2023-06-10T00:12:24;5.13;;;1.90;;
20468;SDS011;10393;52.460;13.322;2023-06-10T00:14:05;1.92;;;1.17;;
20468;SDS011;10393;52.460;13.322;2023-06-10T00:15:46;5.40;;;2.15;;
20468;SDS011;10393;52.460;13.322;2023-06-10T00:17:28;3.92;;;1.58;;
20468;SDS011;10393;52.460;13.322;2023-06-10T00:19:09;5.03;;;1.95;;
20468;SDS011;10393;52.460;13.322;2023-06-10T00:20:53;3.30;;;1.83;;
20468;SDS011;10393;52.460;13.322;2023-06-10T00:22:35;4.47;;;1.58;;
20468;SDS011;10393;52.460;13.322;2023-06-10T00:24:16;4.57;;;2.35;;
20468;SDS011;10393;52.460;13.322;2023-06-10T00:25:58;5.65;;;1.90;;
20468;SDS011;10393;52.460;13.322;2023-06-10T00:27:39;4.63;;;2.00;;
20468;SDS011;10393;52.460;13.322;2023-06-10T00:29:21;2.80;;;1.17;;
20468;SDS011;10393;52.460;13.322;2023-06-10T00:31:02;5.25;;;1.55;;
20468;SDS011;10393;52.460;13.322;2023-06-10T00:32:46;7.13;;;1.70;;
20468;SDS011;10393;52.460;13.322;2023-06-10T00:34:27;7.93;;;2.22;;
20468;SDS011;10393;52.460;13.322;2023-06-10T00:36:08;2.47;;;1.00;;
20468;SDS011;10393;52.460;13.322;2023-06-10T00:37:49;8.55;;;1.58;;
20468;SDS011;10393;52.460;13.322;2023-06-10T00:39:30;3.90;;;1.50;;
20468;SDS011;10393;52.460;13.322;2023-06-10T00:41:12;4.68;;;1.52;;
20468;SDS011;10393;52.460;13.322;2023-06-10T00:42:53;6.35;;;2.28;;
20468;SDS011;10393;52.460;13.322;2023-06-10T00:44:35;7.70;;;1.73;;
20468;SDS011;10393;52.460;13.322;2023-06-10T00:46:17;9.63;;;2.22;;
20468;SDS011;10393;52.460;13.322;2023-06-10T00:47:59;8.25;;;1.73;;
20468;SDS011;10393;52.460;13.322;2023-06-10T00:49:40;2.67;;;1.40;;
20468;SDS011;10393;52.460;13.322;2023-06-10T00:51:22;4.97;;;1.30;;
20468;SDS011;10393;52.460;13.322;2023-06-10T00:53:03;5.38;;;1.80;;
20468;SDS011;10393;52.460;13.322;2023-06-10T00:54:44;5.38;;;1.52;;
20468;SDS011;10393;52.460;13.322;2023-06-10T00:56:26;7.20;;;1.67;;
20468;SDS011;10393;52.460;13.322;2023-06-10T00:58:09;5.03;;;1.80;;
20468;SDS011;10393;52.460;13.322;2023-06-10T00:59:50;8.10;;;1.90;;
20468;SDS011;10393;52.460;13.322;2023-06-10T01:01:32;5.43;;;1.90;;
20468;SDS011;10393;52.460;13.322;2023-06-10T01:03:16;3.30;;;1.60;;
20468;SDS011;10393;52.460;13.322;2023-06-10T01:04:59;7.43;;;2.20;;
20468;SDS011;10393;52.460;13.322;2023-06-10T01:08:35;5.10;;;1.90;;
20468;SDS011;10393;52.460;13.322;2023-06-10T01:12:10;8.98;;;2.20;;
20468;SDS011;10393;52.460;13.322;2023-06-10T01:13:53;4.03;;;1.60;;
20468;SDS011;10393;52.460;13.322;2023-06-10T01:15:35;5.78;;;2.03;;
20468;SDS011;10393;52.460;13.322;2023-06-10T01:17:17;8.88;;;2.08;;
20468;SDS011;10393;52.460;13.322;2023-06-10T01:18:59;7.85;;;2.05;;
20468;SDS011;10393;52.460;13.322;2023-06-10T01:20:41;3.28;;;1.50;;
20468;SDS011;10393;52.460;13.322;2023-06-10T01:22:23;5.53;;;1.92;;
20468;SDS011;10393;52.460;13.322;2023-06-10T01:24:06;2.85;;;1.70;;
20468;SDS011;10393;52.460;13.322;2023-06-10T01:25:59;1.55;;;1.08;;
20468;SDS011;10393;52.460;13.322;2023-06-10T01:27:42;3.25;;;1.25;;
20468;SDS011;10393;52.460;13.322;2023-06-10T01:29:27;4.05;;;1.80;;
20468;SDS011;10393;52.460;13.322;2023-06-10T01:31:11;2.55;;;1.48;;
20468;SDS011;10393;52.460;13.322;2023-06-10T01:32:54;8.20;;;1.70;;
20468;SDS011;10393;52.460;13.322;2023-06-10T01:34:35;4.75;;;1.80;;
20468;SDS011;10393;52.460;13.322;2023-06-10T01:36:18;1.10;;;1.00;;
20468;SDS011;10393;52.460;13.322;2023-06-10T01:37:59;5.72;;;2.10;;
20468;SDS011;10393;52.460;13.322;2023-06-10T01:39:41;4.47;;;1.75;;
20468;SDS011;10393;52.460;13.322;2023-06-10T01:41:23;4.20;;;1.58;;
20468;SDS011;10393;52.460;13.322;2023-06-10T01:43:05;2.97;;;0.80;;
20468;SDS011;10393;52.460;13.322;2023-06-10T01:44:46;5.25;;;1.17;;
20468;SDS011;10393;52.460;13.322;2023-06-10T01:46:27;5.05;;;1.52;;
20468;SDS011;10393;52.460;13.322;2023-06-10T01:48:09;2.40;;;0.85;;
20468;SDS011;10393;52.460;13.322;2023-06-10T01:49:50;2.53;;;1.65;;
20468;SDS011;10393;52.460;13.322;2023-06-10T01:51:32;5.43;;;1.95;;
20468;SDS011;10393;52.460;13.322;2023-06-10T01:53:13;6.65;;;1.80;;
20468;SDS011;10393;52.460;13.322;2023-06-10T01:54:55;8.30;;;2.08;;
20468;SDS011;10393;52.460;13.322;2023-06-10T01:56:36;10.70;;;2.67;;
20468;SDS011;10393;52.460;13.322;2023-06-10T01:58:17;3.03;;;1.33;;
20468;SDS011;10393;52.460;13.322;2023-06-10T01:59:58;2.38;;;1.92;;
20468;SDS011;10393;52.460;13.322;2023-06-10T02:01:39;3.85;;;2.22;;
20468;SDS011;10393;52.460;13.322;2023-06-10T02:03:24;4.80;;;1.23;;
20468;SDS011;10393;52.460;13.322;2023-06-10T02:05:05;3.63;;;1.70;;
20468;SDS011;10393;52.460;13.322;2023-06-10T02:06:46;8.90;;;2.38;;
20468;SDS011;10393;52.460;13.322;2023-06-10T02:08:28;3.78;;;0.73;;
20468;SDS011;10393;52.460;13.322;2023-06-10T02:10:09;8.40;;;2.05;;
20468;SDS011;10393;52.460;13.322;2023-06-10T02:11:50;3.50;;;1.40;;
20468;SDS011;10393;52.460;13.322;2023-06-10T02:13:32;2.35;;;1.23;;
20468;SDS011;10393;52.460;13.322;2023-06-10T02:15:13;5.10;;;1.65;;
20468;SDS011;10393;52.460;13.322;2023-06-10T02:16:54;2.35;;;0.98;;
20468;SDS011;10393;52.460;13.322;2023-06-10T02:18:37;4.47;;;1.85;;
20468;SDS011;10393;52.460;13.322;2023-06-10T02:20:18;9.60;;;1.80;;
20468;SDS011;10393;52.460;13.322;2023-06-10T02:22:00;2.83;;;1.77;;
20468;SDS011;10393;52.460;13.322;2023-06-10T02:23:42;5.22;;;2.35;;
20468;SDS011;10393;52.460;13.322;2023-06-10T02:25:23;6.07;;;2.03;;
20468;SDS011;10393;52.460;13.322;2023-06-10T02:27:05;4.25;;;1.85;;
20468;SDS011;10393;52.460;13.322;2023-06-10T02:28:48;1.30;;;1.17;;
20468;SDS011;10393;52.460;13.322;2023-06-10T02:30:30;4.18;;;2.10;;
20468;SDS011;10393;52.460;13.322;2023-06-10T02:32:12;7.00;;;2.15;;
20468;SDS011;10393;52.460;13.322;2023-06-10T02:33:55;3.40;;;1.23;;
20468;SDS011;10393;52.460;13.322;2023-06-10T02:35:40;8.43;;;2.45;;
20468;SDS011;10393;52.460;13.322;2023-06-10T02:37:21;6.53;;;1.98;;
20468;SDS011;10393;52.460;13.322;2023-06-10T02:39:03;4.05;;;1.70;;
20468;SDS011;10393;52.460;13.322;2023-06-10T02:40:45;6.70;;;1.40;;
20468;SDS011;10393;52.460;13.322;2023-06-10T02:42:27;3.15;;;1.30;;
20468;SDS011;10393;52.460;13.322;2023-06-10T02:44:08;4.78;;;1.00;;
20468;SDS011;10393;52.460;13.322;2023-06-10T02:45:49;7.28;;;2.00;;
20468;SDS011;10393;52.460;13.322;2023-06-10T02:47:31;4.68;;;2.00;;
20468;SDS011;10393;52.460;13.322;2023-06-10T02:49:13;5.38;;;1.42;;
20468;SDS011;10393;52.460;13.322;2023-06-10T02:50:54;3.47;;;1.80;;
20468;SDS011;10393;52.460;13.322;2023-06-10T02:52:46;5.45;;;1.45;;
20468;SDS011;10393;52.460;13.322;2023-06-10T02:54:27;3.65;;;0.95;;
20468;SDS011;10393;52.460;13.322;2023-06-10T02:56:10;1.63;;;1.13;;
20468;SDS011;10393;52.460;13.322;2023-06-10T02:57:53;9.20;;;2.47;;
20468;SDS011;10393;52.460;13.322;2023-06-10T02:59:34;8.68;;;2.22;;
20468;SDS011;10393;52.460;13.322;2023-06-10T03:01:17;8.13;;;1.60;;
20468;SDS011;10393;52.460;13.322;2023-06-10T03:03:07;5.15;;;1.70;;
20468;SDS011;10393;52.460;13.322;2023-06-10T03:04:59;5.65;;;1.85;;
20468;SDS011;10393;52.460;13.322;2023-06-10T03:06:40;1.85;;;1.00;;
20468;SDS011;10393;52.460;13.322;2023-06-10T03:08:28;2.65;;;1.67;;
20468;SDS011;10393;52.460;13.322;2023-06-10T03:10:12;4.45;;;1.80;;
20468;SDS011;10393;52.460;13.322;2023-06-10T03:11:54;6.78;;;2.00;;
20468;SDS011;10393;52.460;13.322;2023-06-10T03:13:36;2.05;;;1.13;;
20468;SDS011;10393;52.460;13.322;2023-06-10T03:15:18;3.15;;;1.50;;
20468;SDS011;10393;52.460;13.322;2023-06-10T03:17:01;2.63;;;1.60;;
20468;SDS011;10393;52.460;13.322;2023-06-10T03:18:44;4.70;;;2.47;;
20468;SDS011;10393;52.460;13.322;2023-06-10T03:20:26;4.78;;;1.92;;
20468;SDS011;10393;52.460;13.322;2023-06-10T03:22:09;2.42;;;1.60;;
20468;SDS011;10393;52.460;13.322;2023-06-10T03:23:53;11.60;;;2.40;;
20468;SDS011;10393;52.460;13.322;2023-06-10T03:25:35;4.00;;;1.50;;
20468;SDS011;10393;52.460;13.322;2023-06-10T03:27:17;7.47;;;1.85;;
20468;SDS011;10393;52.460;13.322;2023-06-10T03:29:02;3.17;;;1.15;;
20468;SDS011;10393;52.460;13.322;2023-06-10T03:30:43;2.85;;;1.60;;
20468;SDS011;10393;52.460;13.322;2023-06-10T03:32:25;5.75;;;2.15;;
20468;SDS011;10393;52.460;13.322;2023-06-10T03:34:06;13.18;;;1.73;;
20468;SDS011;10393;52.460;13.322;2023-06-10T03:35:47;5.05;;;1.40;;
20468;SDS011;10393;52.460;13.322;2023-06-10T03:37:29;6.43;;;2.15;;
20468;SDS011;10393;52.460;13.322;2023-06-10T03:39:10;3.88;;;2.20;;
20468;SDS011;10393;52.460;13.322;2023-06-10T03:40:52;8.50;;;2.42;;
20468;SDS011;10393;52.460;13.322;2023-06-10T03:42:34;4.97;;;1.70;;
20468;SDS011;10393;52.460;13.322;2023-06-10T03:44:15;5.57;;;1.95;;
20468;SDS011;10393;52.460;13.322;2023-06-10T03:45:57;9.00;;;2.08;;
20468;SDS011;10393;52.460;13.322;2023-06-10T03:47:38;7.07;;;1.80;;
20468;SDS011;10393;52.460;13.322;2023-06-10T03:49:23;1.38;;;1.15;;
20468;SDS011;10393;52.460;13.322;2023-06-10T03:51:08;4.78;;;2.10;;
20468;SDS011;10393;52.460;13.322;2023-06-10T03:52:49;7.03;;;2.20;;
20468;SDS011;10393;52.460;13.322;2023-06-10T03:54:33;5.20;;;1.35;;
20468;SDS011;10393;52.460;13.322;2023-06-10T03:56:15;3.10;;;2.00;;
20468;SDS011;10393;52.460;13.322;2023-06-10T03:57:56;6.32;;;1.63;;
20468;SDS011;10393;52.460;13.322;2023-06-10T03:59:38;6.72;;;1.48;;
20468;SDS011;10393;52.460;13.322;2023-06-10T04:01:19;12.10;;;2.83;;
20468;SDS011;10393;52.460;13.322;2023-06-10T04:03:01;1.02;;;0.85;;
20468;SDS011;10393;52.460;13.322;2023-06-10T04:04:50;1.27;;;1.08;;
20468;SDS011;10393;52.460;13.322;2023-06-10T04:06:32;4.68;;;2.22;;
20468;SDS011;10393;52.460;13.322;2023-06-10T04:08:13;8.77;;;2.17;;
20468;SDS011;10393;52.460;13.322;2023-06-10T04:09:54;6.88;;;2.45;;
20468;SDS011;10393;52.460;13.322;2023-06-10T04:11:36;5.75;;;1.55;;
20468;SDS011;10393;52.460;13.322;2023-06-10T04:13:17;2.08;;;1.17;;
20468;SDS011;10393;52.460;13.322;2023-06-10T04:15:09;9.20;;;2.38;;
20468;SDS011;10393;52.460;13.322;2023-06-10T04:16:51;4.00;;;1.58;;
20468;SDS011;10393;52.460;13.322;2023-06-10T04:18:32;5.05;;;2.47;;
20468;SDS011;10393;52.460;13.322;2023-06-10T04:20:18;3.88;;;1.00;;
20468;SDS011;10393;52.460;13.322;2023-06-10T04:22:01;5.05;;;2.20;;
20468;SDS011;10393;52.460;13.322;2023-06-10T04:23:45;5.75;;;2.40;;
20468;SDS011;10393;52.460;13.322;2023-06-10T04:25:27;5.88;;;2.28;;
20468;SDS011;10393;52.460;13.322;2023-06-10T04:27:09;3.45;;;1.63;;
20468;SDS011;10393;52.460;13.322;2023-06-10T04:28:50;7.38;;;2.40;;
20468;SDS011;10393;52.460;13.322;2023-06-10T04:30:32;8.63;;;2.67;;
20468;SDS011;10393;52.460;13.322;2023-06-10T04:32:14;2.78;;;1.88;;
20468;SDS011;10393;52.460;13.322;2023-06-10T04:33:55;3.95;;;2.17;;
20468;SDS011;10393;52.460;13.322;2023-06-10T04:35:38;5.35;;;2.22;;
20468;SDS011;10393;52.460;13.322;2023-06-10T04:37:22;8.02;;;2.45;;
20468;SDS011;10393;52.460;13.322;2023-06-10T04:39:04;4.70;;;1.50;;
20468;SDS011;10393;52.460;13.322;2023-06-10T04:40:49;3.72;;;2.38;;
20468;SDS011;10393;52.460;13.322;2023-06-10T04:42:33;9.85;;;1.95;;
20468;SDS011;10393;52.460;13.322;2023-06-10T04:44:14;8.60;;;2.83;;
20468;SDS011;10393;52.460;13.322;2023-06-10T04:45:56;2.10;;;1.42;;
20468;SDS011;10393;52.460;13.322;2023-06-10T04:47:37;4.90;;;2.38;;
20468;SDS011;10393;52.460;13.322;2023-06-10T04:49:19;3.00;;;2.38;;
20468;SDS011;10393;52.460;13.322;2023-06-10T04:51:00;4.18;;;1.85;;
20468;SDS011;10393;52.460;13.322;2023-06-10T04:52:42;13.25;;;3.20;;
20468;SDS011;10393;52.460;13.322;2023-06-10T04:54:24;9.75;;;3.67;;
20468;SDS011;10393;52.460;13.322;2023-06-10T04:56:06;6.15;;;2.78;;
20468;SDS011;10393;52.460;13.322;2023-06-10T04:57:47;4.63;;;2.45;;
20468;SDS011;10393;52.460;13.322;2023-06-10T04:59:29;2.28;;;1.90;;
20468;SDS011;10393;52.460;13.322;2023-06-10T05:01:10;2.00;;;1.55;;
20468;SDS011;10393;52.460;13.322;2023-06-10T05:02:51;6.20;;;2.50;;
20468;SDS011;10393;52.460;13.322;2023-06-10T05:04:32;5.22;;;1.88;;
20468;SDS011;10393;52.460;13.322;2023-06-10T05:06:14;7.55;;;2.92;;
20468;SDS011;10393;52.460;13.322;2023-06-10T05:07:55;4.10;;;1.67;;
20468;SDS011;10393;52.460;13.322;2023-06-10T05:09:36;5.85;;;2.47;;
20468;SDS011;10393;52.460;13.322;2023-06-10T05:11:17;6.20;;;2.42;;
20468;SDS011;10393;52.460;13.322;2023-06-10T05:12:58;10.23;;;2.47;;
20468;SDS011;10393;52.460;13.322;2023-06-10T05:14:40;5.18;;;2.50;;
20468;SDS011;10393;52.460;13.322;2023-06-10T05:16:21;3.80;;;2.17;;
20468;SDS011;10393;52.460;13.322;2023-06-10T05:18:02;4.57;;;2.63;;
20468;SDS011;10393;52.460;13.322;2023-06-10T05:19:43;7.78;;;2.20;;
20468;SDS011;10393;52.460;13.322;2023-06-10T05:21:25;5.97;;;2.40;;
20468;SDS011;10393;52.460;13.322;2023-06-10T05:23:06;6.22;;;2.45;;
20468;SDS011;10393;52.460;13.322;2023-06-10T05:24:48;2.72;;;1.73;;
20468;SDS011;10393;52.460;13.322;2023-06-10T05:26:29;2.47;;;1.65;;
20468;SDS011;10393;52.460;13.322;2023-06-10T05:28:11;3.22;;;1.27;;
20468;SDS011;10393;52.460;13.322;2023-06-10T05:29:53;5.80;;;2.50;;
20468;SDS011;10393;52.460;13.322;2023-06-10T05:31:34;1.20;;;1.13;;
20468;SDS011;10393;52.460;13.322;2023-06-10T05:33:15;6.90;;;3.33;;
20468;SDS011;10393;52.460;13.322;2023-06-10T05:34:56;2.35;;;1.08;;
20468;SDS011;10393;52.460;13.322;2023-06-10T05:36:37;2.17;;;1.40;;
20468;SDS011;10393;52.460;13.322;2023-06-10T05:38:19;5.50;;;2.38;;
20468;SDS011;10393;52.460;13.322;2023-06-10T05:40:00;7.50;;;2.85;;
20468;SDS011;10393;52.460;13.322;2023-06-10T05:41:41;4.60;;;2.95;;
20468;SDS011;10393;52.460;13.322;2023-06-10T05:43:22;3.90;;;2.60;;
20468;SDS011;10393;52.460;13.322;2023-06-10T05:45:05;6.75;;;3.25;;
20468;SDS011;10393;52.460;13.322;2023-06-10T05:46:47;8.15;;;2.78;;
20468;SDS011;10393;52.460;13.322;2023-06-10T05:48:28;6.90;;;2.85;;
20468;SDS011;10393;52.460;13.322;2023-06-10T05:50:09;8.85;;;2.63;;
20468;SDS011;10393;52.460;13.322;2023-06-10T05:51:50;4.97;;;2.47;;
20468;SDS011;10393;52.460;13.322;2023-06-10T05:53:32;3.10;;;2.28;;
20468;SDS011;10393;52.460;13.322;2023-06-10T05:55:14;9.23;;;3.17;;
20468;SDS011;10393;52.460;13.322;2023-06-10T05:56:55;8.43;;;3.05;;
20468;SDS011;10393;52.460;13.322;2023-06-10T05:58:36;3.08;;;2.47;;
20468;SDS011;10393;52.460;13.322;2023-06-10T06:00:18;7.45;;;3.38;;
20468;SDS011;10393;52.460;13.322;2023-06-10T06:01:59;5.72;;;2.88;;
20468;SDS011;10393;52.460;13.322;2023-06-10T06:03:40;5.28;;;3.67;;
20468;SDS011;10393;52.460;13.322;2023-06-10T06:05:21;4.95;;;3.38;;
20468;SDS011;10393;52.460;13.322;2023-06-10T06:07:03;5.22;;;3.20;;
20468;SDS011;10393;52.460;13.322;2023-06-10T06:08:44;6.20;;;3.88;;
20468;SDS011;10393;52.460;13.322;2023-06-10T06:10:26;4.70;;;3.10;;
20468;SDS011;10393;52.460;13.322;2023-06-10T06:12:07;6.78;;;3.42;;
20468;SDS011;10393;52.460;13.322;2023-06-10T06:13:48;4.22;;;2.28;;
20468;SDS011;10393;52.460;13.322;2023-06-10T06:15:30;7.00;;;3.33;;
20468;SDS011;10393;52.460;13.322;2023-06-10T06:17:11;9.48;;;4.28;;
20468;SDS011;10393;52.460;13.322;2023-06-10T06:18:52;5.72;;;3.20;;
20468;SDS011;10393;52.460;13.322;2023-06-10T06:20:34;9.05;;;2.75;;
20468;SDS011;10393;52.460;13.322;2023-06-10T06:22:15;10.07;;;4.38;;
20468;SDS011;10393;52.460;13.322;2023-06-10T06:24:00;6.22;;;3.97;;
20468;SDS011;10393;52.460;13.322;2023-06-10T06:25:41;16.60;;;3.97;;
20468;SDS011;10393;52.460;13.322;2023-06-10T06:27:22;7.15;;;3.88;;
20468;SDS011;10393;52.460;13.322;2023-06-10T06:29:04;7.53;;;3.80;;
20468;SDS011;10393;52.460;13.322;2023-06-10T06:30:45;6.68;;;3.55;;
20468;SDS011;10393;52.460;13.322;2023-06-10T06:32:26;9.90;;;3.92;;
20468;SDS011;10393;52.460;13.322;2023-06-10T06:34:07;6.38;;;3.83;;
20468;SDS011;10393;52.460;13.322;2023-06-10T06:35:48;7.32;;;3.85;;
20468;SDS011;10393;52.460;13.322;2023-06-10T06:37:30;10.00;;;4.43;;
20468;SDS011;10393;52.460;13.322;2023-06-10T06:39:29;5.28;;;3.95;;
20468;SDS011;10393;52.460;13.322;2023-06-10T06:41:10;4.50;;;3.17;;
20468;SDS011;10393;52.460;13.322;2023-06-10T06:42:51;5.32;;;4.13;;
20468;SDS011;10393;52.460;13.322;2023-06-10T06:44:51;5.43;;;4.43;;
20468;SDS011;10393;52.460;13.322;2023-06-10T06:46:32;5.43;;;4.28;;
20468;SDS011;10393;52.460;13.322;2023-06-10T06:48:13;6.13;;;3.75;;
20468;SDS011;10393;52.460;13.322;2023-06-10T06:49:54;7.22;;;4.60;;
20468;SDS011;10393;52.460;13.322;2023-06-10T06:51:36;6.38;;;4.38;;
20468;SDS011;10393;52.460;13.322;2023-06-10T06:53:17;3.67;;;3.38;;
20468;SDS011;10393;52.460;13.322;2023-06-10T06:54:58;7.53;;;4.07;;
20468;SDS011;10393;52.460;13.322;2023-06-10T06:56:39;4.68;;;4.28;;
20468;SDS011;10393;52.460;13.322;2023-06-10T06:58:21;7.38;;;3.28;;
20468;SDS011;10393;52.460;13.322;2023-06-10T07:00:02;6.63;;;4.38;;
20468;SDS011;10393;52.460;13.322;2023-06-10T07:01:45;19.73;;;4.95;;
20468;SDS011;10393;52.460;13.322;2023-06-10T07:03:26;5.95;;;4.55;;
20468;SDS011;10393;52.460;13.322;2023-06-10T07:05:07;12.40;;;4.63;;
20468;SDS011;10393;52.460;13.322;2023-06-10T07:06:49;9.35;;;4.68;;
20468;SDS011;10393;52.460;13.322;2023-06-10T07:08:30;6.10;;;4.78;;
20468;SDS011;10393;52.460;13.322;2023-06-10T07:10:12;8.02;;;5.18;;
20468;SDS011;10393;52.460;13.322;2023-06-10T07:11:54;7.68;;;4.30;;
20468;SDS011;10393;52.460;13.322;2023-06-10T07:13:36;7.00;;;4.95;;
20468;SDS011;10393;52.460;13.322;2023-06-10T07:15:17;5.40;;;4.65;;
20468;SDS011;10393;52.460;13.322;2023-06-10T07:16:58;5.40;;;4.80;;
20468;SDS011;10393;52.460;13.322;2023-06-10T07:18:40;7.30;;;4.88;;
20468;SDS011;10393;52.460;13.322;2023-06-10T07:20:21;6.00;;;5.20;;
20468;SDS011;10393;52.460;13.322;2023-06-10T07:22:02;6.50;;;5.95;;
20468;SDS011;10393;52.460;13.322;2023-06-10T07:23:44;9.32;;;5.47;;
20468;SDS011;10393;52.460;13.322;2023-06-10T07:25:25;6.38;;;5.32;;
20468;SDS011;10393;52.460;13.322;2023-06-10T07:27:06;7.05;;;5.22;;
20468;SDS011;10393;52.460;13.322;2023-06-10T07:28:48;11.40;;;5.68;;
20468;SDS011;10393;52.460;13.322;2023-06-10T07:30:29;5.22;;;4.85;;
20468;SDS011;10393;52.460;13.322;2023-06-10T07:32:10;4.60;;;3.60;;
20468;SDS011;10393;52.460;13.322;2023-06-10T07:33:51;7.85;;;5.07;;
20468;SDS011;10393;52.460;13.322;2023-06-10T07:35:32;13.23;;;5.70;;
20468;SDS011;10393;52.460;13.322;2023-06-10T07:37:14;5.18;;;4.78;;
20468;SDS011;10393;52.460;13.322;2023-06-10T07:38:55;10.50;;;5.40;;
20468;SDS011;10393;52.460;13.322;2023-06-10T07:40:36;5.85;;;5.30;;
20468;SDS011;10393;52.460;13.322;2023-06-10T07:42:17;8.25;;;5.65;;
20468;SDS011;10393;52.460;13.322;2023-06-10T07:43:59;5.93;;;5.28;;
20468;SDS011;10393;52.460;13.322;2023-06-10T07:45:40;5.25;;;4.85;;
20468;SDS011;10393;52.460;13.322;2023-06-10T07:47:21;5.38;;;4.97;;
20468;SDS011;10393;52.460;13.322;2023-06-10T07:49:02;6.72;;;5.45;;
20468;SDS011;10393;52.460;13.322;2023-06-10T07:50:44;5.15;;;4.40;;
20468;SDS011;10393;52.460;13.322;2023-06-10T07:52:25;4.85;;;4.47;;
20468;SDS011;10393;52.460;13.322;2023-06-10T07:54:06;5.20;;;4.70;;
20468;SDS011;10393;52.460;13.322;2023-06-10T07:55:47;5.80;;;5.35;;
20468;SDS011;10393;52.460;13.322;2023-06-10T07:57:29;6.55;;;4.70;;
20468;SDS011;10393;52.460;13.322;2023-06-10T07:59:13;5.25;;;4.93;;
20468;SDS011;10393;52.460;13.322;2023-06-10T08:00:54;5.57;;;5.07;;
20468;SDS011;10393;52.460;13.322;2023-06-10T08:02:35;6.50;;;5.70;;
20468;SDS011;10393;52.460;13.322;2023-06-10T08:04:17;8.10;;;5.68;;
20468;SDS011;10393;52.460;13.322;2023-06-10T08:05:59;6.35;;;5.45;;
20468;SDS011;10393;52.460;13.322;2023-06-10T08:07:40;7.80;;;5.30;;
20468;SDS011;10393;52.460;13.322;2023-06-10T08:09:21;6.82;;;5.35;;
20468;SDS011;10393;52.460;13.322;2023-06-10T08:11:03;10.73;;;5.43;;
20468;SDS011;10393;52.460;13.322;2023-06-10T08:12:44;8.63;;;5.45;;
20468;SDS011;10393;52.460;13.322;2023-06-10T08:14:26;6.45;;;5.22;;
20468;SDS011;10393;52.460;13.322;2023-06-10T08:16:07;9.40;;;5.90;;
20468;SDS011;10393;52.460;13.322;2023-06-10T08:17:48;6.88;;;5.70;;
20468;SDS011;10393;52.460;13.322;2023-06-10T08:19:30;6.47;;;5.85;;
20468;SDS011;10393;52.460;13.322;2023-06-10T08:21:11;8.55;;;4.80;;
20468;SDS011;10393;52.460;13.322;2023-06-10T08:22:52;8.38;;;5.18;;
20468;SDS011;10393;52.460;13.322;2023-06-10T08:24:34;7.53;;;5.47;;
20468;SDS011;10393;52.460;13.322;2023-06-10T08:26:15;9.23;;;6.03;;
20468;SDS011;10393;52.460;13.322;2023-06-10T08:27:56;9.10;;;5.72;;
20468;SDS011;10393;52.460;13.322;2023-06-10T08:29:37;9.70;;;4.93;;
20468;SDS011;10393;52.460;13.322;2023-06-10T08:31:18;8.20;;;5.50;;
20468;SDS011;10393;52.460;13.322;2023-06-10T08:33:00;6.78;;;6.10;;
20468;SDS011;10393;52.460;13.322;2023-06-10T08:34:41;12.27;;;8.02;;
20468;SDS011;10393;52.460;13.322;2023-06-10T08:36:22;8.02;;;7.25;;
20468;SDS011;10393;52.460;13.322;2023-06-10T08:38:03;6.82;;;6.22;;
20468;SDS011;10393;52.460;13.322;2023-06-10T08:39:45;5.30;;;4.57;;
20468;SDS011;10393;52.460;13.322;2023-06-10T08:41:28;8.13;;;5.47;;
20468;SDS011;10393;52.460;13.322;2023-06-10T08:43:17;7.70;;;5.28;;
20468;SDS011;10393;52.460;13.322;2023-06-10T08:45:00;6.03;;;5.10;;
20468;SDS011;10393;52.460;13.322;2023-06-10T08:46:42;8.10;;;5.78;;
20468;SDS011;10393;52.460;13.322;2023-06-10T08:48:24;11.65;;;5.78;;
20468;SDS011;10393;52.460;13.322;2023-06-10T08:50:07;9.15;;;6.70;;
20468;SDS011;10393;52.460;13.322;2023-06-10T08:51:54;9.52;;;5.10;;
20468;SDS011;10393;52.460;13.322;2023-06-10T08:53:37;10.13;;;5.75;;
20468;SDS011;10393;52.460;13.322;2023-06-10T08:55:29;31.15;;;19.92;;
20468;SDS011;10393;52.460;13.322;2023-06-10T08:57:11;7.00;;;5.32;;
20468;SDS011;10393;52.460;13.322;2023-06-10T08:58:53;6.75;;;5.50;;
20468;SDS011;10393;52.460;13.322;2023-06-10T09:00:36;7.10;;;4.47;;
20468;SDS011;10393;52.460;13.322;2023-06-10T09:02:18;7.63;;;5.70;;
20468;SDS011;10393;52.460;13.322;2023-06-10T09:04:00;5.43;;;4.68;;
20468;SDS011;10393;52.460;13.322;2023-06-10T09:05:42;4.60;;;3.25;;
20468;SDS011;10393;52.460;13.322;2023-06-10T09:07:23;6.90;;;3.75;;
20468;SDS011;10393;52.460;13.322;2023-06-10T09:09:06;5.78;;;3.42;;
20468;SDS011;10393;52.460;13.322;2023-06-10T09:10:48;8.30;;;4.93;;
20468;SDS011;10393;52.460;13.322;2023-06-10T09:12:29;7.10;;;5.22;;
20468;SDS011;10393;52.460;13.322;2023-06-10T09:14:11;4.70;;;4.28;;
20468;SDS011;10393;52.460;13.322;2023-06-10T09:15:53;10.23;;;8.43;;
20468;SDS011;10393;52.460;13.322;2023-06-10T09:17:36;10.07;;;7.20;;
20468;SDS011;10393;52.460;13.322;2023-06-10T09:19:18;7.68;;;6.65;;
20468;SDS011;10393;52.460;13.322;2023-06-10T09:21:01;10.75;;;5.78;;
20468;SDS011;10393;52.460;13.322;2023-06-10T09:22:42;6.95;;;4.85;;
20468;SDS011;10393;52.460;13.322;2023-06-10T09:24:24;5.63;;;4.60;;
20468;SDS011;10393;52.460;13.322;2023-06-10T09:26:09;7.57;;;5.15;;
20468;SDS011;10393;52.460;13.322;2023-06-10T09:27:53;9.70;;;5.78;;
20468;SDS011;10393;52.460;13.322;2023-06-10T09:29:55;7.00;;;5.47;;
20468;SDS011;10393;52.460;13.322;2023-06-10T09:31:38;6.95;;;4.00;;
20468;SDS011;10393;52.460;13.322;2023-06-10T09:33:19;10.40;;;6.47;;
20468;SDS011;10393;52.460;13.322;2023-06-10T09:35:09;6.03;;;4.95;;
20468;SDS011;10393;52.460;13.322;2023-06-10T09:36:51;6.28;;;5.32;;
20468;SDS011;10393;52.460;13.322;2023-06-10T09:38:33;8.00;;;5.70;;
20468;SDS011;10393;52.460;13.322;2023-06-10T09:40:14;2.35;;;2.03;;
20468;SDS011;10393;52.460;13.322;2023-06-10T09:41:55;8.00;;;5.95;;
20468;SDS011;10393;52.460;13.322;2023-06-10T09:43:43;8.48;;;4.35;;
20468;SDS011;10393;52.460;13.322;2023-06-10T09:45:30;4.78;;;3.78;;
20468;SDS011;10393;52.460;13.322;2023-06-10T09:47:19;6.57;;;4.82;;
20468;SDS011;10393;52.460;13.322;2023-06-10T09:49:00;5.63;;;5.05;;
20468;SDS011;10393;52.460;13.322;2023-06-10T09:50:42;7.57;;;6.07;;
20468;SDS011;10393;52.460;13.322;2023-06-10T09:52:27;7.80;;;6.20;;
20468;SDS011;10393;52.460;13.322;2023-06-10T09:54:09;2.28;;;2.10;;
20468;SDS011;10393;52.460;13.322;2023-06-10T09:55:51;6.90;;;5.93;;
20468;SDS011;10393;52.460;13.322;2023-06-10T09:57:33;13.23;;;4.45;;
20468;SDS011;10393;52.460;13.322;2023-06-10T09:59:16;5.80;;;3.92;;
20468;SDS011;10393;52.460;13.322;2023-06-10T10:00:57;6.07;;;4.65;;
20468;SDS011;10393;52.460;13.322;2023-06-10T10:02:45;8.98;;;2.80;;
20468;SDS011;10393;52.460;13.322;2023-06-10T10:04:28;3.42;;;2.95;;
20468;SDS011;10393;52.460;13.322;2023-06-10T10:06:09;3.53;;;3.17;;
20468;SDS011;10393;52.460;13.322;2023-06-10T10:07:50;6.97;;;4.72;;
20468;SDS011;10393;52.460;13.322;2023-06-10T10:09:32;4.32;;;3.90;;